createdAt,value
2023-01-25T00:01:22.905Z,15.07
2023-01-25T00:04:03.255Z,13.87
2023-01-25T00:06:36.267Z,13.83
2023-01-25T00:09:03.584Z,14.97
2023-01-25T00:11:37.288Z,13.87
2023-01-25T00:14:12.226Z,14.83
2023-01-25T00:16:46.465Z,15.00
2023-01-25T00:19:19.221Z,14.83
2023-01-25T00:21:46.382Z,15.07
2023-01-25T00:24:21.330Z,15.03
2023-01-25T00:26:48.155Z,15.97
2023-01-25T00:29:21.224Z,16.03
2023-01-25T00:32:06.097Z,15.40
2023-01-25T00:34:51.275Z,15.13
2023-01-25T00:37:35.308Z,14.57
2023-01-25T00:40:08.313Z,15.33
2023-01-25T00:42:41.297Z,15.23
2023-01-25T00:45:17.291Z,16.17
2023-01-25T00:47:43.917Z,15.50
2023-01-25T00:50:11.281Z,17.03
2023-01-25T00:52:44.265Z,16.63
2023-01-25T00:55:11.171Z,17.23
2023-01-25T00:57:44.279Z,16.13
2023-01-25T01:00:11.707Z,16.10
2023-01-25T01:02:45.251Z,15.87
2023-01-25T01:05:18.747Z,15.93
2023-01-25T01:07:52.332Z,16.47
2023-01-25T01:10:19.177Z,15.47
2023-01-25T01:12:52.232Z,16.50
2023-01-25T01:15:18.883Z,16.57
2023-01-25T01:17:52.253Z,17.30
2023-01-25T01:20:21.687Z,16.83
2023-01-25T01:22:55.364Z,16.27
2023-01-25T01:25:28.362Z,16.07
2023-01-25T01:27:55.231Z,15.87
2023-01-25T01:30:28.272Z,15.67
2023-01-25T01:33:01.411Z,16.80
2023-01-25T01:35:29.859Z,15.30
2023-01-25T01:37:56.636Z,16.67
2023-01-25T01:40:31.363Z,16.67
2023-01-25T01:43:03.796Z,15.93
2023-01-25T01:45:56.380Z,16.03
2023-01-25T01:48:31.178Z,16.87
2023-01-25T01:51:10.349Z,16.23
2023-01-25T01:53:38.970Z,17.63
2023-01-25T01:56:17.383Z,16.87
2023-01-25T01:58:46.376Z,16.40
2023-01-25T02:01:19.363Z,17.63
2023-01-25T02:04:17.279Z,16.60
2023-01-25T02:06:58.304Z,16.80
2023-01-25T02:09:35.309Z,18.33
2023-01-25T02:12:09.344Z,16.00
2023-01-25T02:14:40.528Z,17.47
2023-01-25T02:17:14.271Z,17.37
2023-01-25T02:19:54.304Z,18.47
2023-01-25T02:22:37.323Z,18.27
2023-01-25T02:25:19.321Z,17.20
2023-01-25T02:28:00.315Z,17.87
2023-01-25T02:30:27.245Z,17.47
2023-01-25T02:32:53.989Z,17.40
2023-01-25T02:35:43.295Z,18.10
2023-01-25T02:38:13.319Z,17.50
2023-01-25T02:41:02.249Z,16.90
2023-01-25T02:43:39.324Z,16.90
2023-01-25T02:46:25.361Z,17.47
2023-01-25T02:48:52.371Z,16.93
2023-01-25T02:51:33.336Z,17.57
2023-01-25T02:54:01.398Z,16.77
2023-01-25T02:56:36.326Z,17.13
2023-01-25T02:59:05.899Z,17.90
2023-01-25T03:01:40.376Z,17.40
2023-01-25T03:04:13.705Z,17.27
2023-01-25T03:06:47.349Z,16.23
2023-01-25T03:09:13.971Z,16.13
2023-01-25T03:11:47.316Z,17.23
2023-01-25T03:14:20.290Z,17.27
2023-01-25T03:16:53.304Z,17.40
2023-01-25T03:19:19.917Z,15.57
2023-01-25T03:21:53.280Z,17.33
2023-01-25T03:24:26.287Z,17.07
2023-01-25T03:27:11.036Z,15.87
2023-01-25T03:29:45.281Z,17.50
2023-01-25T03:32:25.317Z,16.63
2023-01-25T03:34:58.413Z,18.03
2023-01-25T03:37:30.124Z,16.13
2023-01-25T03:40:04.349Z,18.17
2023-01-25T03:42:31.089Z,17.17
2023-01-25T03:45:04.362Z,18.97
2023-01-25T03:47:31.317Z,17.03
2023-01-25T03:50:04.411Z,17.17
2023-01-25T03:52:38.306Z,16.80
2023-01-25T03:55:12.350Z,16.97
2023-01-25T03:57:39.164Z,17.07
2023-01-25T04:00:13.323Z,17.17
2023-01-25T16:53:36.827Z,20.00
2023-01-25T16:56:03.548Z,24.20
2023-01-25T16:58:36.815Z,23.33
2023-01-25T17:01:09.128Z,22.10
2023-01-25T17:03:42.727Z,22.70
2023-01-25T17:06:25.799Z,22.63
2023-01-25T17:08:54.955Z,23.93
2023-01-25T17:11:29.784Z,22.93
2023-01-25T17:13:59.517Z,22.97
2023-01-25T17:16:29.142Z,21.87
2023-01-25T17:19:04.826Z,23.13
2023-01-25T17:21:32.984Z,22.77
2023-01-25T17:24:07.857Z,23.57
2023-01-25T17:26:34.998Z,22.37
2023-01-25T17:29:09.801Z,21.67
2023-01-25T17:31:36.722Z,23.67
2023-01-25T17:34:08.297Z,23.27
2023-01-25T17:36:41.763Z,21.60
2023-01-25T17:39:14.734Z,21.70
2023-01-25T17:41:46.309Z,20.53
2023-01-25T17:44:20.762Z,20.77
2023-01-25T17:46:48.500Z,21.50
2023-01-25T17:49:25.753Z,20.47
2023-01-25T17:51:58.846Z,21.00
2023-01-25T17:54:32.301Z,22.10
2023-01-25T17:57:05.791Z,21.57
2023-01-25T17:59:38.870Z,21.40
2023-01-25T18:02:06.645Z,20.13
2023-01-25T18:04:40.809Z,21.90
2023-01-25T18:07:07.418Z,21.30
2023-01-25T18:09:35.940Z,21.63
2023-01-25T18:12:08.870Z,21.10
2023-01-25T18:14:35.555Z,21.67
2023-01-25T18:17:09.949Z,19.37
2023-01-25T18:19:36.929Z,21.10
2023-01-25T18:22:10.783Z,21.03
2023-01-25T18:24:37.716Z,22.77
2023-01-25T18:27:07.860Z,20.13
2023-01-25T18:30:01.831Z,23.43
2023-01-25T18:32:30.652Z,20.13
2023-01-25T18:35:03.798Z,21.00
2023-01-25T18:37:35.917Z,21.77
2023-01-25T18:40:08.829Z,21.90
2023-01-25T18:42:35.462Z,22.20
2023-01-25T18:45:09.160Z,18.97
2023-01-25T18:47:36.142Z,20.37
2023-01-25T18:50:09.858Z,22.13
2023-01-25T18:52:42.853Z,21.33
2023-01-25T18:55:15.805Z,21.47
2023-01-25T18:57:55.838Z,22.63
2023-01-25T19:00:28.860Z,22.30
2023-01-25T19:02:55.587Z,20.67
2023-01-25T19:05:28.814Z,21.53
2023-01-25T19:08:01.784Z,21.77
2023-01-25T19:10:34.770Z,21.43
2023-01-25T19:13:07.817Z,15.73
2023-01-25T19:15:34.536Z,21.83
2023-01-25T19:18:07.921Z,21.90
2023-01-25T19:20:40.833Z,21.53
2023-01-25T19:23:14.852Z,20.47
2023-01-25T19:25:41.527Z,21.93
2023-01-25T19:28:14.816Z,23.30
2023-01-25T19:30:41.493Z,22.47
2023-01-25T19:33:14.870Z,21.60
2023-01-25T19:35:47.827Z,24.30
2023-01-25T19:38:20.851Z,24.03
2023-01-25T19:40:53.822Z,22.97
2023-01-25T19:43:20.632Z,23.73
2023-01-25T19:45:53.834Z,24.13
2023-01-25T19:48:20.678Z,22.77
2023-01-25T19:50:53.845Z,23.63
2023-01-25T19:53:40.855Z,22.67
2023-01-25T19:56:16.191Z,24.77
2023-01-25T19:58:48.063Z,25.00
2023-01-25T20:01:29.301Z,24.50
2023-01-25T20:04:07.859Z,25.47
2023-01-25T20:06:41.819Z,21.63
2023-01-25T20:09:11.353Z,24.60
2023-01-25T20:11:44.866Z,22.60
2023-01-25T20:14:20.842Z,24.27
2023-01-25T20:16:58.844Z,22.97
2023-01-25T20:19:25.668Z,24.30
2023-01-25T20:21:52.567Z,23.50
2023-01-25T20:24:32.876Z,21.03
2023-01-25T20:27:05.810Z,19.83
2023-01-25T20:29:32.508Z,22.50
2023-01-25T20:32:05.973Z,24.70
2023-01-25T20:34:38.875Z,17.03
2023-01-25T20:37:05.656Z,22.27
2023-01-25T20:39:38.831Z,23.80
2023-01-25T20:42:05.572Z,17.13
2023-01-25T20:44:38.815Z,23.73
2023-01-25T20:47:05.588Z,22.03
2023-01-25T20:49:34.620Z,26.60
2023-01-25T20:52:07.895Z,24.10
2023-01-25T20:54:44.034Z,24.57
2023-01-25T20:57:16.825Z,26.47
2023-01-25T20:59:49.840Z,25.50
2023-01-25T21:02:22.923Z,22.03
2023-01-25T21:04:49.603Z,24.83
2023-01-25T21:07:22.848Z,24.10
2023-01-25T21:09:49.580Z,24.03
2023-01-25T21:12:22.842Z,23.67
2023-01-25T21:14:50.207Z,28.87
2023-01-25T21:17:22.860Z,24.57
2023-01-25T21:19:49.417Z,27.30
2023-01-25T21:22:22.911Z,26.27
2023-01-25T21:24:55.882Z,27.30
2023-01-25T21:27:29.835Z,27.60
2023-01-25T21:29:57.333Z,28.17
2023-01-25T21:32:30.905Z,27.43
2023-01-25T21:35:03.939Z,24.27
2023-01-25T21:37:30.676Z,27.07
2023-01-25T21:40:03.964Z,30.07
2023-01-25T21:42:32.402Z,25.73
2023-01-25T21:45:24.913Z,29.30
2023-01-25T21:47:51.615Z,31.20
2023-01-25T21:50:43.808Z,29.33
2023-01-25T21:53:17.269Z,29.73
2023-01-25T21:56:02.019Z,31.53
2023-01-25T21:58:28.647Z,22.50
2023-01-25T22:01:13.290Z,30.07
2023-01-25T22:03:40.068Z,28.47
2023-01-25T22:06:13.853Z,29.50
2023-01-25T22:08:40.505Z,30.00
2023-01-25T22:11:14.919Z,29.53
2023-01-25T22:13:48.019Z,31.10
2023-01-25T22:16:15.182Z,30.73
2023-01-25T22:18:49.902Z,30.37
2023-01-25T22:21:22.099Z,32.13
2023-01-25T22:23:55.982Z,28.80
2023-01-25T22:26:30.926Z,29.80
2023-01-25T22:29:05.836Z,29.87
2023-01-25T22:31:32.870Z,29.70
2023-01-25T22:34:07.021Z,29.97
2023-01-25T22:36:34.055Z,29.53
2023-01-25T22:39:00.883Z,35.33
2023-01-25T22:41:39.915Z,24.87
2023-01-25T22:44:12.878Z,31.63
2023-01-25T22:46:45.898Z,32.33
2023-01-25T22:49:18.854Z,35.60
2023-01-25T22:51:51.869Z,35.27
2023-01-25T22:54:31.892Z,30.43
2023-01-25T22:57:05.930Z,35.53
2023-01-25T22:59:32.647Z,31.73
2023-01-25T23:02:05.857Z,31.50
2023-01-25T23:04:38.865Z,33.33
2023-01-25T23:07:19.160Z,29.50
2023-01-25T23:09:48.494Z,30.60
2023-01-25T23:12:22.026Z,30.77
2023-01-25T23:14:51.783Z,31.80
2023-01-25T23:17:48.829Z,29.57
2023-01-25T23:20:15.531Z,30.67
2023-01-25T23:22:48.972Z,29.57
2023-01-25T23:25:15.925Z,30.23
2023-01-25T23:27:48.955Z,28.90
2023-01-25T23:30:16.128Z,33.10
2023-01-25T23:32:52.891Z,32.43
2023-01-25T23:35:26.908Z,27.97
2023-01-25T23:37:59.924Z,31.77
2023-01-25T23:40:32.865Z,30.10
2023-01-25T23:42:59.439Z,27.53
2023-01-25T23:45:32.937Z,32.33
2023-01-25T23:47:59.542Z,31.27
2023-01-25T23:50:32.885Z,28.63
2023-01-25T23:53:19.919Z,30.03
2023-01-25T23:56:09.923Z,32.80
2023-01-25T23:58:38.381Z,24.80
